Time;durP1;ratioP1;P1;durP2;ratioP2;P2;SDS_P1;SDS_P2;PMS_P1;PMS_P2;Temp;Humidity;BMP_temperature;BMP_pressure;BME280_temperature;BME280_humidity;BME280_pressure;Samples;Min_cycle;Max_cycle;Signal;HPM_P1;HPM_P2
2024/03/26 00:01:39;;;;;;;0.10;0.10;;;;;;;;;;5118489;27;20066;-87
2024/03/26 00:04:05;;;;;;;0.10;0.10;;;;;;;;;;5135752;27;20054;-88
2024/03/26 00:06:31;;;;;;;0.10;0.10;;;;;;;;;;5135856;27;20039;-88
2024/03/26 00:08:57;;;;;;;0.10;0.10;;;;;;;;;;5135570;27;20065;-88
2024/03/26 00:11:24;;;;;;;0.10;0.10;;;;;;;;;;5135577;27;20041;-86
2024/03/26 00:13:50;;;;;;;0.10;0.10;;;;;;;;;;5135597;27;20079;-87
2024/03/26 00:16:16;;;;;;;0.10;0.10;;;;;;;;;;5118347;27;20077;-88
2024/03/26 00:18:42;;;;;;;0.10;0.10;;;;;;;;;;5135604;27;20035;-87
2024/03/26 00:21:08;;;;;;;0.10;0.10;;;;;;;;;;5135362;27;20035;-87
2024/03/26 00:23:34;;;;;;;0.10;0.10;;;;;;;;;;5118142;27;20547;-87
2024/03/26 00:26:00;;;;;;;0.10;0.10;;;;;;;;;;5118327;27;20039;-87
2024/03/26 00:28:26;;;;;;;0.10;0.10;;;;;;;;;;5135150;27;20039;-88
2024/03/26 00:30:52;;;;;;;0.20;0.20;;;;;;;;;;5117885;27;20036;-87
2024/03/26 00:33:18;;;;;;;0.10;0.10;;;;;;;;;;5117991;27;20035;-87
2024/03/26 00:35:44;;;;;;;0.10;0.10;;;;;;;;;;5101054;27;20126;-88
2024/03/26 00:38:10;;;;;;;0.20;0.20;;;;;;;;;;5101050;27;20065;-87
2024/03/26 00:40:36;;;;;;;0.10;0.10;;;;;;;;;;5117926;27;20051;-87
2024/03/26 00:43:02;;;;;;;0.10;0.10;;;;;;;;;;5134911;27;20043;-88
2024/03/26 00:45:28;;;;;;;0.20;0.20;;;;;;;;;;5118076;27;20045;-88
2024/03/26 00:47:54;;;;;;;0.10;0.10;;;;;;;;;;5100801;27;20035;-87
2024/03/26 00:50:20;;;;;;;0.10;0.10;;;;;;;;;;5134667;27;20035;-88
2024/03/26 00:52:46;;;;;;;0.10;0.10;;;;;;;;;;5135088;27;20061;-93
2024/03/26 00:55:12;;;;;;;0.10;0.10;;;;;;;;;;5138940;27;20039;-89
2024/03/26 00:57:38;;;;;;;0.10;0.10;;;;;;;;;;5117660;27;20398;-86
2024/03/26 01:00:10;;;;;;;0.10;0.10;;;;;;;;;;5117396;27;20122;-86
2024/03/26 01:02:36;;;;;;;0.10;0.10;;;;;;;;;;5116773;28;20481;-88
2024/03/26 01:05:02;;;;;;;0.10;0.10;;;;;;;;;;5134081;27;20050;-86
2024/03/26 01:07:28;;;;;;;0.10;0.10;;;;;;;;;;5100196;27;20039;-87
2024/03/26 01:09:54;;;;;;;0.10;0.10;;;;;;;;;;5117194;27;20035;-87
2024/03/26 01:12:20;;;;;;;0.10;0.10;;;;;;;;;;5117104;27;20035;-87
2024/03/26 01:14:46;;;;;;;0.10;0.10;;;;;;;;;;5117204;27;20043;-86
2024/03/26 01:17:12;;;;;;;0.10;0.10;;;;;;;;;;5134342;27;20493;-88
2024/03/26 01:19:38;;;;;;;0.10;0.10;;;;;;;;;;5116910;27;20043;-88
2024/03/26 01:22:04;;;;;;;0.10;0.10;;;;;;;;;;5117142;27;20038;-87
2024/03/26 01:24:30;;;;;;;0.10;0.10;;;;;;;;;;5133979;27;20079;-87
2024/03/26 01:26:56;;;;;;;0.10;0.10;;;;;;;;;;5116799;27;20513;-87
2024/03/26 01:29:22;;;;;;;0.10;0.10;;;;;;;;;;5100092;27;20042;-87
2024/03/26 01:31:48;;;;;;;0.20;0.20;;;;;;;;;;5116630;27;20398;-87
2024/03/26 01:34:17;;;;;;;0.10;0.10;;;;;;;;;;5099899;27;20076;-87
2024/03/26 01:36:44;;;;;;;0.10;0.10;;;;;;;;;;5133700;27;20125;-88
2024/03/26 01:39:10;;;;;;;0.10;0.10;;;;;;;;;;5099811;27;20482;-88
2024/03/26 01:41:36;;;;;;;0.52;0.52;;;;;;;;;;5116591;27;20100;-87
2024/03/26 01:44:02;;;;;;;0.10;0.10;;;;;;;;;;5133668;27;20051;-87
2024/03/26 01:46:28;;;;;;;0.10;0.10;;;;;;;;;;5133535;27;20027;-88
2024/03/26 01:48:54;;;;;;;0.70;0.15;;;;;;;;;;5133495;27;20042;-87
2024/03/26 01:51:21;;;;;;;0.50;0.50;;;;;;;;;;5133867;27;20066;-89
2024/03/26 01:53:47;;;;;;;0.10;0.10;;;;;;;;;;5099522;27;20038;-88
2024/03/26 01:56:13;;;;;;;0.10;0.10;;;;;;;;;;5116849;27;20039;-87
2024/03/26 01:58:39;;;;;;;0.10;0.10;;;;;;;;;;5133548;27;20122;-88
2024/03/26 02:01:05;;;;;;;0.10;0.10;;;;;;;;;;5116495;27;20059;-88
2024/03/26 02:03:31;;;;;;;0.10;0.10;;;;;;;;;;5116067;27;20039;-88
2024/03/26 02:05:57;;;;;;;0.10;0.10;;;;;;;;;;5099199;27;20359;-88
2024/03/26 02:08:23;;;;;;;0.10;0.10;;;;;;;;;;5099286;27;20035;-88
2024/03/26 02:10:50;;;;;;;0.10;0.10;;;;;;;;;;5116034;27;20035;-88
2024/03/26 02:13:16;;;;;;;0.10;0.10;;;;;;;;;;5133416;27;20039;-89
2024/03/26 02:15:42;;;;;;;0.10;0.10;;;;;;;;;;5133062;27;20531;-89
2024/03/26 02:18:08;;;;;;;0.10;0.10;;;;;;;;;;5133137;27;20047;-88
2024/03/26 02:20:34;;;;;;;0.10;0.10;;;;;;;;;;5133288;27;20046;-88
2024/03/26 02:23:00;;;;;;;0.10;0.10;;;;;;;;;;5099068;27;20497;-90
2024/03/26 02:25:26;;;;;;;0.10;0.10;;;;;;;;;;5132905;27;20087;-88
2024/03/26 02:27:52;;;;;;;0.10;0.10;;;;;;;;;;5116031;27;20335;-88
2024/03/26 02:30:18;;;;;;;0.10;0.10;;;;;;;;;;5132815;27;20035;-88
2024/03/26 02:32:44;;;;;;;0.10;0.10;;;;;;;;;;5115580;27;20045;-89
2024/03/26 02:35:10;;;;;;;0.10;0.10;;;;;;;;;;5115984;27;20039;-89
2024/03/26 02:37:36;;;;;;;0.10;0.10;;;;;;;;;;5132868;27;20047;-88
2024/03/26 02:40:03;;;;;;;0.10;0.10;;;;;;;;;;5132690;27;20047;-88
2024/03/26 02:42:29;;;;;;;0.10;0.10;;;;;;;;;;5098813;27;20043;-88
2024/03/26 02:44:55;;;;;;;0.10;0.10;;;;;;;;;;5115416;27;20122;-87
2024/03/26 02:47:21;;;;;;;0.10;0.10;;;;;;;;;;5115316;27;20063;-87
2024/03/26 02:49:47;;;;;;;0.10;0.10;;;;;;;;;;5115582;27;20041;-87
2024/03/26 02:52:13;;;;;;;0.10;0.10;;;;;;;;;;5115327;27;20448;-88
2024/03/26 02:54:39;;;;;;;0.20;0.20;;;;;;;;;;5132722;27;20047;-88
2024/03/26 02:57:05;;;;;;;0.10;0.10;;;;;;;;;;5098510;27;20039;-88
2024/03/26 02:59:31;;;;;;;0.10;0.10;;;;;;;;;;5132525;27;20082;-88
2024/03/26 03:01:57;;;;;;;0.10;0.10;;;;;;;;;;5115103;27;20135;-89
2024/03/26 03:04:23;;;;;;;0.10;0.10;;;;;;;;;;5098141;27;20099;-89
2024/03/26 03:06:49;;;;;;;0.10;0.10;;;;;;;;;;5132409;27;20043;-88
2024/03/26 03:09:15;;;;;;;0.10;0.10;;;;;;;;;;5132242;27;20122;-88
2024/03/26 03:11:41;;;;;;;0.10;0.10;;;;;;;;;;5115122;27;20035;-87
2024/03/26 03:14:07;;;;;;;0.20;0.20;;;;;;;;;;5098088;28;20043;-88
2024/03/26 03:16:33;;;;;;;0.10;0.10;;;;;;;;;;5132095;27;20470;-87
2024/03/26 03:18:59;;;;;;;0.10;0.10;;;;;;;;;;5098048;27;20042;-88
2024/03/26 03:21:26;;;;;;;0.30;0.30;;;;;;;;;;5115222;28;20066;-88
2024/03/26 03:23:52;;;;;;;0.10;0.10;;;;;;;;;;5115063;28;20035;-87
2024/03/26 03:26:18;;;;;;;0.20;0.20;;;;;;;;;;5114383;28;20035;-86
2024/03/26 03:28:44;;;;;;;0.10;0.10;;;;;;;;;;5132030;28;20376;-87
2024/03/26 03:31:09;;;;;;;0.10;0.10;;;;;;;;;;5115036;28;20047;-88
2024/03/26 03:33:35;;;;;;;0.10;0.10;;;;;;;;;;5115160;28;20072;-88
2024/03/26 03:36:01;;;;;;;0.10;0.10;;;;;;;;;;5132068;28;20039;-87
2024/03/26 03:38:27;;;;;;;0.10;0.10;;;;;;;;;;5115238;28;20117;-88
2024/03/26 03:40:53;;;;;;;0.10;0.10;;;;;;;;;;5132203;28;20042;-88
2024/03/26 03:43:19;;;;;;;0.10;0.10;;;;;;;;;;5115354;28;20054;-89
2024/03/26 03:45:45;;;;;;;0.10;0.10;;;;;;;;;;5114989;28;20478;-88
2024/03/26 03:48:11;;;;;;;0.20;0.20;;;;;;;;;;5132082;28;20043;-88
2024/03/26 03:50:37;;;;;;;0.10;0.10;;;;;;;;;;5132069;28;20035;-88
2024/03/26 03:53:03;;;;;;;0.10;0.10;;;;;;;;;;5114821;28;20410;-89
2024/03/26 03:55:32;;;;;;;0.10;0.10;;;;;;;;;;5115080;28;20042;-87
2024/03/26 03:57:58;;;;;;;0.10;0.10;;;;;;;;;;5097592;28;20035;-86
2024/03/26 04:00:24;;;;;;;0.10;0.10;;;;;;;;;;5131827;28;20059;-87
2024/03/26 04:02:50;;;;;;;0.10;0.10;;;;;;;;;;5114995;28;20050;-88
2024/03/26 04:05:16;;;;;;;0.10;0.10;;;;;;;;;;5132174;28;20122;-88
2024/03/26 04:07:43;;;;;;;0.10;0.10;;;;;;;;;;5115126;28;20372;-88
2024/03/26 04:10:09;;;;;;;0.10;0.10;;;;;;;;;;5114783;28;20490;-89
2024/03/26 04:12:35;;;;;;;0.10;0.10;;;;;;;;;;5097984;28;20065;-88
2024/03/26 04:15:01;;;;;;;0.13;0.13;;;;;;;;;;5114856;28;20118;-88
2024/03/26 04:17:28;;;;;;;0.10;0.10;;;;;;;;;;5132067;28;20039;-88
2024/03/26 04:19:54;;;;;;;0.30;0.30;;;;;;;;;;5097753;28;20059;-88
2024/03/26 04:22:19;;;;;;;0.10;0.10;;;;;;;;;;5098018;28;20058;-88
2024/03/26 04:24:45;;;;;;;0.10;0.10;;;;;;;;;;5131662;28;20404;-87
2024/03/26 04:27:11;;;;;;;0.10;0.10;;;;;;;;;;5114784;28;20046;-88
2024/03/26 04:29:37;;;;;;;0.10;0.10;;;;;;;;;;5131416;28;20066;-88
2024/03/26 04:32:04;;;;;;;0.10;0.10;;;;;;;;;;5114670;28;20037;-88
2024/03/26 04:34:30;;;;;;;0.10;0.10;;;;;;;;;;5097985;28;20138;-88
2024/03/26 04:37:01;;;;;;;0.10;0.10;;;;;;;;;;5131809;28;20039;-88
2024/03/26 04:39:27;;;;;;;0.10;0.10;;;;;;;;;;5117100;27;20535;-88
2024/03/26 04:41:54;;;;;;;0.10;0.10;;;;;;;;;;5118273;27;20043;-88
2024/03/26 04:44:20;;;;;;;0.10;0.10;;;;;;;;;;5101371;27;20057;-89
2024/03/26 04:46:46;;;;;;;0.10;0.10;;;;;;;;;;5118292;27;20046;-88
2024/03/26 04:49:12;;;;;;;0.10;0.10;;;;;;;;;;5135141;27;20043;-88
2024/03/26 04:51:38;;;;;;;0.10;0.10;;;;;;;;;;5118071;27;20153;-89
2024/03/26 04:54:05;;;;;;;0.15;0.15;;;;;;;;;;5101122;27;20379;-88
2024/03/26 04:56:32;;;;;;;0.10;0.10;;;;;;;;;;5101410;27;20439;-88
2024/03/26 04:58:58;;;;;;;0.10;0.10;;;;;;;;;;5101317;27;20043;-88
2024/03/26 05:01:24;;;;;;;0.28;0.28;;;;;;;;;;5117939;27;20155;-88
2024/03/26 05:03:50;;;;;;;0.10;0.10;;;;;;;;;;5134953;27;20513;-89
2024/03/26 05:06:16;;;;;;;0.10;0.10;;;;;;;;;;5118369;27;20043;-88
2024/03/26 05:08:42;;;;;;;0.10;0.10;;;;;;;;;;5117856;27;20031;-88
2024/03/26 05:11:08;;;;;;;0.10;0.10;;;;;;;;;;5134472;27;20497;-88
2024/03/26 05:13:34;;;;;;;0.10;0.10;;;;;;;;;;5134655;27;20126;-87
2024/03/26 05:16:00;;;;;;;0.10;0.10;;;;;;;;;;5100740;27;20414;-87
2024/03/26 05:18:26;;;;;;;0.10;0.10;;;;;;;;;;5117473;27;20043;-87
2024/03/26 05:20:52;;;;;;;0.10;0.10;;;;;;;;;;5117469;27;20511;-88
2024/03/26 05:23:19;;;;;;;0.10;0.10;;;;;;;;;;5117356;27;20070;-88
2024/03/26 05:25:45;;;;;;;0.10;0.10;;;;;;;;;;5117328;27;20038;-88
2024/03/26 05:28:11;;;;;;;0.20;0.20;;;;;;;;;;5134603;27;20558;-87
2024/03/26 05:30:38;;;;;;;0.10;0.10;;;;;;;;;;5117044;27;20036;-87
2024/03/26 05:33:04;;;;;;;0.10;0.10;;;;;;;;;;5134154;27;20039;-87
2024/03/26 05:35:30;;;;;;;0.10;0.10;;;;;;;;;;5100056;27;20047;-88
2024/03/26 05:37:58;;;;;;;0.10;0.10;;;;;;;;;;5117271;27;20075;-87
2024/03/26 05:40:24;;;;;;;0.10;0.10;;;;;;;;;;5100257;27;20486;-88
2024/03/26 05:42:50;;;;;;;0.10;0.10;;;;;;;;;;5134064;27;20058;-88
2024/03/26 05:45:16;;;;;;;0.10;0.10;;;;;;;;;;5116963;27;20198;-88
2024/03/26 05:47:42;;;;;;;0.10;0.10;;;;;;;;;;5099717;27;20043;-88
2024/03/26 05:50:08;;;;;;;0.22;0.22;;;;;;;;;;5115911;27;20035;-88
2024/03/26 05:52:34;;;;;;;0.20;0.20;;;;;;;;;;5116740;27;20042;-87
2024/03/26 05:55:00;;;;;;;0.10;0.10;;;;;;;;;;5099873;27;20035;-87
2024/03/26 05:57:26;;;;;;;0.10;0.10;;;;;;;;;;5116389;27;20487;-87
2024/03/26 05:59:54;;;;;;;0.10;0.10;;;;;;;;;;5116701;27;20042;-86
2024/03/26 06:02:20;;;;;;;0.10;0.10;;;;;;;;;;5099667;27;20055;-87
2024/03/26 06:04:46;;;;;;;0.17;0.17;;;;;;;;;;5133507;27;20096;-87
2024/03/26 06:07:12;;;;;;;0.10;0.10;;;;;;;;;;5099016;27;20474;-87
2024/03/26 06:09:38;;;;;;;0.10;0.10;;;;;;;;;;5116120;27;20084;-88
2024/03/26 06:12:04;;;;;;;0.10;0.10;;;;;;;;;;5116192;27;20477;-87
2024/03/26 06:14:30;;;;;;;0.17;0.17;;;;;;;;;;5099050;27;20071;-88
2024/03/26 06:16:56;;;;;;;0.10;0.10;;;;;;;;;;5133213;27;20125;-88
2024/03/26 06:19:22;;;;;;;0.10;0.10;;;;;;;;;;5115999;27;20483;-88
2024/03/26 06:21:48;;;;;;;0.10;0.10;;;;;;;;;;5115947;27;20058;-88
2024/03/26 06:24:14;;;;;;;0.20;0.20;;;;;;;;;;5115710;27;20513;-88
2024/03/26 06:26:39;;;;;;;0.10;0.10;;;;;;;;;;5115671;27;20043;-87
2024/03/26 06:29:05;;;;;;;0.10;0.10;;;;;;;;;;5132822;27;20039;-87
2024/03/26 06:31:31;;;;;;;0.10;0.10;;;;;;;;;;5115717;27;20073;-88
2024/03/26 06:33:57;;;;;;;0.10;0.10;;;;;;;;;;5115719;27;20039;-88
2024/03/26 06:36:23;;;;;;;0.10;0.10;;;;;;;;;;5115738;27;20487;-88
2024/03/26 06:38:49;;;;;;;0.20;0.20;;;;;;;;;;5132863;27;20070;-88
2024/03/26 06:41:16;;;;;;;0.10;0.10;;;;;;;;;;5115627;27;20058;-88
2024/03/26 06:43:42;;;;;;;0.10;0.10;;;;;;;;;;5132708;27;20043;-88
2024/03/26 06:46:08;;;;;;;0.10;0.10;;;;;;;;;;5115579;27;20042;-89
2024/03/26 06:48:34;;;;;;;0.10;0.10;;;;;;;;;;5098648;27;20031;-87
2024/03/26 06:51:00;;;;;;;0.10;0.10;;;;;;;;;;5132790;27;20043;-88
2024/03/26 06:53:26;;;;;;;0.10;0.10;;;;;;;;;;5132500;27;20126;-89
2024/03/26 06:55:52;;;;;;;0.13;0.13;;;;;;;;;;5133920;27;20039;-91
2024/03/26 06:58:18;;;;;;;0.10;0.10;;;;;;;;;;5100841;27;20039;-92
2024/03/26 07:00:44;;;;;;;0.25;0.20;;;;;;;;;;5099105;28;20047;-92
2024/03/26 07:03:11;;;;;;;0.10;0.10;;;;;;;;;;5134074;27;20136;-93
2024/03/26 07:05:37;;;;;;;0.10;0.10;;;;;;;;;;5099478;27;20046;-91
2024/03/26 07:08:03;;;;;;;0.20;0.20;;;;;;;;;;5116323;27;20114;-92
2024/03/26 07:10:29;;;;;;;0.10;0.10;;;;;;;;;;5116656;28;20130;-91
2024/03/26 07:12:55;;;;;;;0.10;0.10;;;;;;;;;;5116063;27;20075;-90
2024/03/26 07:15:22;;;;;;;0.10;0.10;;;;;;;;;;5115593;28;20504;-91
2024/03/26 07:17:48;;;;;;;0.20;0.20;;;;;;;;;;5115719;27;20042;-90
2024/03/26 07:20:14;;;;;;;0.10;0.10;;;;;;;;;;5099856;27;20039;-89
2024/03/26 07:22:40;;;;;;;0.20;0.20;;;;;;;;;;5100361;28;20050;-91
2024/03/26 07:25:06;;;;;;;0.15;0.15;;;;;;;;;;5134838;27;20143;-90
2024/03/26 07:27:32;;;;;;;0.10;0.10;;;;;;;;;;5117402;28;20039;-91
2024/03/26 07:29:59;;;;;;;0.28;0.28;;;;;;;;;;5115577;28;20463;-91
2024/03/26 07:32:25;;;;;;;1.08;0.45;;;;;;;;;;5115962;28;20519;-91
2024/03/26 07:34:51;;;;;;;0.10;0.10;;;;;;;;;;5113431;28;20071;-91
2024/03/26 07:37:17;;;;;;;0.20;0.20;;;;;;;;;;5113478;28;20139;-92
2024/03/26 07:39:43;;;;;;;0.20;0.20;;;;;;;;;;5100517;28;20475;-92
2024/03/26 07:42:09;;;;;;;0.20;0.20;;;;;;;;;;5118321;28;20258;-92
2024/03/26 07:44:35;;;;;;;0.17;0.17;;;;;;;;;;5120583;28;20049;-89
2024/03/26 07:47:03;;;;;;;0.10;0.10;;;;;;;;;;5133986;28;20465;-90
2024/03/26 07:49:29;;;;;;;0.10;0.10;;;;;;;;;;5116401;27;20044;-89
2024/03/26 07:51:55;;;;;;;0.30;0.30;;;;;;;;;;5098143;28;20043;-92
2024/03/26 07:54:22;;;;;;;0.10;0.10;;;;;;;;;;5116818;28;20494;-90
2024/03/26 07:56:48;;;;;;;0.10;0.10;;;;;;;;;;5114008;28;20056;-89
2024/03/26 07:59:14;;;;;;;0.20;0.20;;;;;;;;;;5114403;28;20038;-87
2024/03/26 08:01:42;;;;;;;0.30;0.30;;;;;;;;;;5094219;28;20051;-94
2024/03/26 08:04:08;;;;;;;0.10;0.10;;;;;;;;;;5111316;28;20505;-89
2024/03/26 08:06:34;;;;;;;0.10;0.10;;;;;;;;;;5131685;28;20043;-87
2024/03/26 08:09:00;;;;;;;0.10;0.10;;;;;;;;;;5121519;28;20076;-85
2024/03/26 08:11:26;;;;;;;0.20;0.20;;;;;;;;;;5114278;28;20079;-86
2024/03/26 08:13:52;;;;;;;0.10;0.10;;;;;;;;;;5117165;27;20039;-87
2024/03/26 08:16:18;;;;;;;0.10;0.10;;;;;;;;;;5135489;27;20043;-86
2024/03/26 08:18:44;;;;;;;0.22;0.22;;;;;;;;;;5118077;27;20039;-85
2024/03/26 08:21:10;;;;;;;0.30;0.30;;;;;;;;;;5118022;27;20076;-87
2024/03/26 08:23:36;;;;;;;0.20;0.20;;;;;;;;;;5117925;27;20162;-86
2024/03/26 08:26:02;;;;;;;0.20;0.20;;;;;;;;;;5134576;27;20042;-86
2024/03/26 08:28:28;;;;;;;0.20;0.20;;;;;;;;;;5117876;27;20041;-85
2024/03/26 08:30:54;;;;;;;0.15;0.15;;;;;;;;;;5134444;27;20039;-86
2024/03/26 08:33:20;;;;;;;0.25;0.25;;;;;;;;;;5117261;27;20039;-86
2024/03/26 08:35:46;;;;;;;0.20;0.20;;;;;;;;;;5117708;27;20062;-88
2024/03/26 08:38:12;;;;;;;0.40;0.35;;;;;;;;;;5117890;27;20482;-89
2024/03/26 08:40:38;;;;;;;0.30;0.30;;;;;;;;;;5134962;27;20035;-88
2024/03/26 08:43:04;;;;;;;0.73;0.70;;;;;;;;;;5117355;27;20474;-87
2024/03/26 08:45:30;;;;;;;0.50;0.50;;;;;;;;;;5100609;27;20119;-89
2024/03/26 08:47:58;;;;;;;0.30;0.30;;;;;;;;;;5101601;27;20076;-87
2024/03/26 08:50:24;;;;;;;0.10;0.10;;;;;;;;;;5117562;27;20122;-87
2024/03/26 08:52:50;;;;;;;0.17;0.17;;;;;;;;;;5134298;27;20070;-86
2024/03/26 08:55:16;;;;;;;0.10;0.10;;;;;;;;;;5117583;27;20039;-87
2024/03/26 08:57:42;;;;;;;0.63;0.63;;;;;;;;;;5117438;27;20356;-87
2024/03/26 09:00:10;;;;;;;0.20;0.20;;;;;;;;;;5117197;27;20092;-87
2024/03/26 09:02:36;;;;;;;0.32;0.30;;;;;;;;;;5101193;27;20107;-88
2024/03/26 09:05:03;;;;;;;0.10;0.10;;;;;;;;;;5117331;27;20043;-88
2024/03/26 09:07:29;;;;;;;0.15;0.15;;;;;;;;;;5117589;27;20382;-89
2024/03/26 09:09:55;;;;;;;0.60;0.60;;;;;;;;;;5134440;27;20042;-88
2024/03/26 09:12:21;;;;;;;0.10;0.10;;;;;;;;;;5134478;27;20042;-86
2024/03/26 09:14:47;;;;;;;0.17;0.17;;;;;;;;;;5117115;27;20035;-88
2024/03/26 09:17:13;;;;;;;0.10;0.10;;;;;;;;;;5117201;27;20077;-88
2024/03/26 09:19:39;;;;;;;0.30;0.30;;;;;;;;;;5117539;27;20039;-88
2024/03/26 09:22:05;;;;;;;0.10;0.10;;;;;;;;;;5117549;27;20039;-89
2024/03/26 09:24:31;;;;;;;0.20;0.20;;;;;;;;;;5116113;27;20139;-85
2024/03/26 09:26:57;;;;;;;0.20;0.20;;;;;;;;;;5117314;27;20038;-86
2024/03/26 09:29:23;;;;;;;0.20;0.20;;;;;;;;;;5116927;27;20078;-85
2024/03/26 09:31:49;;;;;;;0.20;0.20;;;;;;;;;;5134121;27;20042;-86
2024/03/26 09:34:16;;;;;;;0.10;0.10;;;;;;;;;;5116712;27;20050;-85
2024/03/26 09:36:42;;;;;;;0.17;0.17;;;;;;;;;;5116412;27;20047;-86
2024/03/26 09:39:09;;;;;;;0.20;0.20;;;;;;;;;;5116460;27;20039;-87
2024/03/26 09:41:36;;;;;;;0.75;0.75;;;;;;;;;;5099534;27;20039;-86
2024/03/26 09:44:03;;;;;;;0.20;0.20;;;;;;;;;;5116195;27;20799;-86
2024/03/26 09:46:29;;;;;;;0.13;0.13;;;;;;;;;;5117010;27;20070;-85
2024/03/26 09:48:55;;;;;;;0.30;0.30;;;;;;;;;;5116927;27;20039;-88
2024/03/26 09:51:21;;;;;;;0.20;0.20;;;;;;;;;;5099775;27;20043;-90
2024/03/26 09:53:47;;;;;;;0.10;0.10;;;;;;;;;;5116438;27;20328;-88
2024/03/26 09:56:15;;;;;;;0.32;0.32;;;;;;;;;;5099524;27;20046;-90
2024/03/26 09:58:41;;;;;;;0.43;0.43;;;;;;;;;;5099620;27;20046;-90
2024/03/26 10:01:07;;;;;;;0.10;0.10;;;;;;;;;;5116157;27;20070;-89
2024/03/26 10:03:33;;;;;;;0.13;0.13;;;;;;;;;;5099525;27;20035;-89
2024/03/26 10:06:02;;;;;;;0.10;0.10;;;;;;;;;;5133351;27;20035;-90
2024/03/26 10:08:29;;;;;;;0.10;0.10;;;;;;;;;;5116149;27;20035;-90
2024/03/26 10:10:55;;;;;;;0.10;0.10;;;;;;;;;;5115568;27;20064;-85
2024/03/26 10:13:22;;;;;;;0.25;0.25;;;;;;;;;;5114833;27;20047;-86
2024/03/26 10:15:48;;;;;;;0.10;0.10;;;;;;;;;;5116324;27;20129;-86
2024/03/26 10:18:14;;;;;;;0.10;0.10;;;;;;;;;;5133013;27;20043;-88
2024/03/26 10:20:40;;;;;;;0.20;0.20;;;;;;;;;;5115672;27;20520;-87
2024/03/26 10:23:06;;;;;;;0.15;0.15;;;;;;;;;;5134116;27;20043;-88
2024/03/26 10:25:32;;;;;;;0.10;0.10;;;;;;;;;;5115666;27;20126;-89
2024/03/26 10:28:00;;;;;;;0.20;0.20;;;;;;;;;;5115936;27;20055;-88
2024/03/26 10:30:26;;;;;;;0.10;0.10;;;;;;;;;;5117839;27;20038;-88
2024/03/26 10:32:56;;;;;;;0.30;0.30;;;;;;;;;;5116232;27;20118;-91
2024/03/26 10:35:22;;;;;;;0.22;0.20;;;;;;;;;;5116314;27;20035;-90
2024/03/26 10:37:51;;;;;;;0.20;0.20;;;;;;;;;;5115922;27;20042;-87
2024/03/26 10:40:19;;;;;;;0.10;0.10;;;;;;;;;;5132925;27;20049;-94
2024/03/26 10:42:48;;;;;;;0.10;0.10;;;;;;;;;;5116766;27;20038;-87
2024/03/26 10:45:15;;;;;;;0.10;0.10;;;;;;;;;;5098485;27;20050;-86
2024/03/26 10:47:41;;;;;;;0.10;0.10;;;;;;;;;;5098459;27;20057;-87
2024/03/26 10:50:07;;;;;;;0.20;0.20;;;;;;;;;;5098588;27;20071;-87
2024/03/26 10:52:33;;;;;;;0.10;0.10;;;;;;;;;;5115425;27;20470;-88
2024/03/26 10:55:00;;;;;;;0.10;0.10;;;;;;;;;;5098528;27;20263;-88
2024/03/26 10:57:26;;;;;;;0.10;0.10;;;;;;;;;;5115526;27;20108;-89
2024/03/26 10:59:53;;;;;;;0.13;0.13;;;;;;;;;;5114983;27;20080;-86
2024/03/26 11:02:19;;;;;;;0.20;0.20;;;;;;;;;;5132006;27;20494;-85
2024/03/26 11:04:46;;;;;;;0.10;0.10;;;;;;;;;;5115714;27;20074;-88
2024/03/26 11:07:13;;;;;;;0.80;0.57;;;;;;;;;;5115057;27;20042;-88
2024/03/26 11:09:39;;;;;;;0.20;0.20;;;;;;;;;;5115129;27;20078;-87
2024/03/26 11:12:10;;;;;;;0.10;0.10;;;;;;;;;;5116136;27;20471;-91
2024/03/26 11:14:42;;;;;;;0.10;0.10;;;;;;;;;;5115320;27;20035;-85
2024/03/26 11:17:12;;;;;;;0.10;0.10;;;;;;;;;;5114882;27;20039;-86
2024/03/26 11:19:41;;;;;;;0.10;0.10;;;;;;;;;;5114933;28;20042;-87
2024/03/26 11:22:07;;;;;;;0.10;0.10;;;;;;;;;;5134960;27;20063;-87
2024/03/26 11:24:34;;;;;;;0.10;0.10;;;;;;;;;;5116714;28;20039;-89
2024/03/26 11:27:00;;;;;;;0.20;0.20;;;;;;;;;;5117162;28;20134;-86
2024/03/26 11:29:26;;;;;;;0.10;0.10;;;;;;;;;;5131807;28;20088;-86
2024/03/26 11:31:52;;;;;;;0.30;0.30;;;;;;;;;;5131878;28;20183;-86
2024/03/26 11:34:22;;;;;;;0.10;0.10;;;;;;;;;;5114513;28;20601;-86
2024/03/26 11:36:48;;;;;;;0.20;0.20;;;;;;;;;;5097641;28;20467;-86
2024/03/26 11:39:15;;;;;;;0.30;0.30;;;;;;;;;;5131602;27;20188;-86
2024/03/26 11:41:41;;;;;;;0.10;0.10;;;;;;;;;;5115478;28;20078;-92
2024/03/26 11:44:07;;;;;;;0.50;0.50;;;;;;;;;;5113618;28;20093;-86
2024/03/26 11:46:33;;;;;;;0.10;0.10;;;;;;;;;;5131808;27;20047;-86
2024/03/26 11:49:00;;;;;;;0.10;0.10;;;;;;;;;;5118217;27;20134;-86
2024/03/26 11:51:27;;;;;;;0.20;0.20;;;;;;;;;;5101921;27;20408;-87
2024/03/26 11:53:53;;;;;;;0.20;0.20;;;;;;;;;;5118483;27;20041;-85
2024/03/26 11:56:19;;;;;;;0.10;0.10;;;;;;;;;;5118791;27;20456;-89
2024/03/26 11:58:48;;;;;;;0.20;0.20;;;;;;;;;;5118711;27;20035;-90
2024/03/26 12:01:15;;;;;;;0.10;0.10;;;;;;;;;;5118379;27;20562;-89
2024/03/26 12:03:54;;;;;;;0.20;0.20;;;;;;;;;;5118261;27;20142;-89
2024/03/26 12:06:23;;;;;;;0.20;0.20;;;;;;;;;;5118639;27;20035;-89
2024/03/26 12:08:53;;;;;;;0.20;0.20;;;;;;;;;;5135659;27;20490;-89
2024/03/26 12:11:19;;;;;;;0.10;0.10;;;;;;;;;;5135714;27;20039;-89
2024/03/26 12:13:46;;;;;;;0.10;0.10;;;;;;;;;;5135760;27;20210;-89
2024/03/26 12:16:28;;;;;;;0.10;0.10;;;;;;;;;;5118592;27;20039;-90
2024/03/26 12:18:54;;;;;;;0.10;0.10;;;;;;;;;;5118379;27;20035;-89
2024/03/26 12:21:24;;;;;;;0.10;0.10;;;;;;;;;;5117730;27;20043;-89
2024/03/26 12:23:54;;;;;;;0.10;0.10;;;;;;;;;;5135148;27;20379;-90
2024/03/26 12:26:20;;;;;;;0.10;0.10;;;;;;;;;;5101557;27;20562;-89
2024/03/26 12:28:46;;;;;;;0.20;0.20;;;;;;;;;;5118136;27;20039;-86
2024/03/26 12:31:16;;;;;;;0.30;0.30;;;;;;;;;;5118148;27;20521;-89
2024/03/26 12:33:42;;;;;;;0.10;0.10;;;;;;;;;;5118691;27;20043;-88
2024/03/26 12:36:08;;;;;;;0.10;0.10;;;;;;;;;;5135064;27;20054;-90
2024/03/26 12:38:37;;;;;;;0.50;0.50;;;;;;;;;;5118340;27;20062;-90
2024/03/26 12:41:03;;;;;;;0.20;0.20;;;;;;;;;;5101447;27;20042;-89
2024/03/26 12:43:29;;;;;;;0.10;0.10;;;;;;;;;;5118258;27;20043;-91
2024/03/26 12:45:55;;;;;;;0.22;0.13;;;;;;;;;;5118401;27;20113;-91
2024/03/26 12:48:21;;;;;;;0.10;0.10;;;;;;;;;;5101443;27;20039;-90
2024/03/26 12:50:47;;;;;;;0.10;0.10;;;;;;;;;;5101359;27;20074;-88
2024/03/26 12:53:16;;;;;;;0.10;0.10;;;;;;;;;;5117867;27;20049;-90
2024/03/26 12:55:42;;;;;;;0.30;0.30;;;;;;;;;;5118444;27;20051;-93
2024/03/26 12:58:08;;;;;;;0.10;0.10;;;;;;;;;;5118559;27;20080;-91
2024/03/26 13:00:34;;;;;;;0.10;0.10;;;;;;;;;;5117176;27;20134;-92
2024/03/26 13:03:00;;;;;;;0.10;0.10;;;;;;;;;;5101250;27;20134;-91
2024/03/26 13:05:26;;;;;;;0.10;0.10;;;;;;;;;;5118073;27;20053;-92
2024/03/26 13:07:52;;;;;;;0.20;0.20;;;;;;;;;;5135090;27;20035;-91
2024/03/26 13:10:18;;;;;;;0.10;0.10;;;;;;;;;;5118726;27;20092;-92
2024/03/26 13:12:44;;;;;;;0.10;0.10;;;;;;;;;;5118681;27;20038;-92
2024/03/26 13:15:10;;;;;;;0.22;0.22;;;;;;;;;;5101605;27;20482;-93
2024/03/26 13:17:40;;;;;;;0.10;0.10;;;;;;;;;;5135684;27;20045;-93
2024/03/26 13:20:07;;;;;;;0.82;0.82;;;;;;;;;;5118733;27;20038;-94
2024/03/26 13:22:33;;;;;;;0.20;0.20;;;;;;;;;;5135848;27;20062;-91
2024/03/26 13:24:59;;;;;;;0.20;0.20;;;;;;;;;;5100998;27;20039;-92
2024/03/26 13:27:26;;;;;;;0.10;0.10;;;;;;;;;;5117857;27;20034;-92
2024/03/26 13:29:52;;;;;;;0.10;0.10;;;;;;;;;;5100463;27;20039;-90
2024/03/26 13:32:18;;;;;;;0.20;0.20;;;;;;;;;;5116971;27;20336;-87
2024/03/26 13:34:44;;;;;;;0.10;0.10;;;;;;;;;;5133751;27;20049;-88
2024/03/26 13:37:10;;;;;;;0.20;0.20;;;;;;;;;;5133708;27;20043;-88
2024/03/26 13:39:36;;;;;;;0.20;0.20;;;;;;;;;;5117077;27;20050;-86
2024/03/26 13:42:02;;;;;;;0.20;0.20;;;;;;;;;;5116519;27;20502;-87
2024/03/26 13:44:28;;;;;;;0.10;0.10;;;;;;;;;;5116589;27;20442;-88
2024/03/26 13:46:54;;;;;;;0.10;0.10;;;;;;;;;;5099469;27;20067;-88
2024/03/26 13:49:20;;;;;;;0.20;0.20;;;;;;;;;;5116425;27;20039;-86
2024/03/26 13:51:46;;;;;;;0.10;0.10;;;;;;;;;;5133245;27;20035;-86
2024/03/26 13:54:12;;;;;;;0.10;0.10;;;;;;;;;;5099276;27;20043;-85
2024/03/26 13:56:38;;;;;;;0.10;0.10;;;;;;;;;;5133374;27;20066;-85
2024/03/26 13:59:05;;;;;;;0.35;0.35;;;;;;;;;;5133292;27;20074;-84
2024/03/26 14:01:31;;;;;;;0.40;0.40;;;;;;;;;;5133335;27;20059;-90
2024/03/26 14:03:57;;;;;;;0.20;0.20;;;;;;;;;;5116255;27;20051;-92
2024/03/26 14:06:23;;;;;;;0.10;0.10;;;;;;;;;;5099358;27;20039;-87
2024/03/26 14:08:49;;;;;;;0.30;0.30;;;;;;;;;;5116098;27;20048;-87
2024/03/26 14:11:15;;;;;;;0.20;0.20;;;;;;;;;;5115596;27;20469;-85
2024/03/26 14:13:41;;;;;;;0.10;0.10;;;;;;;;;;5099015;27;20079;-86
2024/03/26 14:16:07;;;;;;;0.10;0.10;;;;;;;;;;5115879;27;20035;-86
2024/03/26 14:18:33;;;;;;;0.20;0.20;;;;;;;;;;5115854;27;20111;-87
2024/03/26 14:21:02;;;;;;;0.20;0.20;;;;;;;;;;5132591;27;20089;-87
2024/03/26 14:23:28;;;;;;;0.30;0.30;;;;;;;;;;5132693;27;20070;-86
2024/03/26 14:25:56;;;;;;;0.10;0.10;;;;;;;;;;5115780;27;20038;-88
2024/03/26 14:28:22;;;;;;;0.30;0.30;;;;;;;;;;5115958;27;20035;-87
2024/03/26 14:30:48;;;;;;;0.10;0.10;;;;;;;;;;5115327;27;20504;-87
2024/03/26 14:33:14;;;;;;;0.20;0.20;;;;;;;;;;5115396;27;20095;-88
2024/03/26 14:35:40;;;;;;;0.20;0.20;;;;;;;;;;5115176;27;20448;-86
2024/03/26 14:38:06;;;;;;;0.43;0.40;;;;;;;;;;5132376;27;20099;-87